Terminal Aerodrome Forecast
Issued by NWS

Home | Current Version | Previous Version | Graphics & Text | Print | Product List | Glossary On
Versions: 1 2 3 4 5 6 7 8 9 10 11 12 13 14 15 16 17
000
FTUS43 KGRB 082320
TAFMTW
TAF
KMTW 082320Z 0900/0924 29014G21KT P6SM BKN040
     FM090500 29009KT P6SM BKN030
     FM091500 28011G16KT P6SM BKN040
     FM092200 27008KT P6SM SCT045=

USA.gov is the U.S. government's official web portal to all federal, state and local government web resources and services.